createdAt,value
2022-12-04T00:00:22.132Z,21.90
2022-12-04T00:02:48.621Z,24.23
2022-12-04T00:05:15.143Z,20.07
2022-12-04T00:07:41.680Z,21.30
2022-12-04T00:10:08.509Z,23.23
2022-12-04T00:12:35.478Z,20.97
2022-12-04T00:17:49.571Z,22.00
2022-12-04T00:20:16.255Z,23.73
2022-12-04T00:22:42.767Z,20.20
2022-12-04T00:25:09.335Z,21.23
2022-12-04T00:27:35.736Z,21.80
2022-12-04T00:30:02.265Z,20.97
2022-12-04T00:32:29.851Z,20.00
2022-12-04T00:34:56.337Z,23.60
2022-12-04T00:37:22.793Z,23.33
2022-12-04T00:39:49.283Z,19.87
2022-12-04T00:42:15.817Z,20.70
2022-12-04T00:44:42.258Z,21.90
2022-12-04T00:47:08.709Z,21.87
2022-12-04T00:49:35.186Z,20.23
2022-12-04T00:52:01.650Z,20.70
2022-12-04T00:54:28.110Z,19.60
2022-12-04T00:56:54.597Z,21.60
2022-12-04T00:59:21.124Z,19.13
2022-12-04T01:01:47.577Z,19.90
2022-12-04T01:04:14.267Z,20.27
2022-12-04T01:06:40.820Z,19.53
2022-12-04T01:09:07.383Z,17.57
2022-12-04T01:11:33.893Z,20.43
2022-12-04T01:14:00.516Z,18.97
2022-12-04T01:16:28.840Z,18.67
2022-12-04T01:18:55.510Z,19.23
2022-12-04T01:21:22.185Z,17.60
2022-12-04T01:23:48.997Z,18.10
2022-12-04T01:26:15.820Z,16.60
2022-12-04T01:28:43.484Z,17.50
2022-12-04T01:31:11.997Z,17.30
2022-12-04T01:33:38.985Z,17.73
2022-12-04T01:36:06.829Z,16.93
2022-12-04T01:38:33.749Z,18.30
2022-12-04T01:41:00.359Z,15.87
2022-12-04T01:43:28.889Z,15.53
2022-12-04T01:45:56.623Z,16.90
2022-12-04T01:48:26.591Z,17.53
2022-12-04T01:50:55.571Z,17.57
2022-12-04T01:53:22.361Z,17.37
2022-12-04T01:55:49.156Z,17.80
2022-12-04T01:58:17.358Z,18.27
2022-12-04T02:00:47.428Z,16.80
2022-12-04T02:03:17.544Z,17.30
2022-12-04T02:05:43.996Z,17.23
2022-12-04T02:08:11.231Z,16.27
2022-12-04T02:10:47.598Z,15.80
2022-12-04T02:13:20.941Z,16.50
2022-12-04T02:16:02.526Z,17.20
2022-12-04T02:18:35.826Z,16.83
2022-12-04T02:21:07.489Z,17.33
2022-12-04T02:23:36.995Z,16.83
2022-12-04T02:26:20.008Z,15.53
2022-12-04T02:29:05.221Z,16.10
2022-12-04T02:31:33.843Z,18.43
2022-12-04T02:34:10.961Z,20.23
2022-12-04T02:36:41.989Z,19.27
2022-12-04T02:39:19.458Z,19.83
2022-12-04T02:41:49.850Z,18.17
2022-12-04T02:44:21.875Z,19.43
2022-12-04T02:46:51.216Z,20.50
2022-12-04T02:49:33.936Z,18.27
2022-12-04T02:52:01.024Z,18.67
2022-12-04T02:54:34.500Z,19.17
2022-12-04T02:57:02.102Z,19.00
2022-12-04T02:59:33.511Z,20.77
2022-12-04T03:02:03.226Z,17.92
2022-12-04T03:04:33.615Z,20.27
2022-12-04T03:07:06.505Z,17.93
2022-12-04T03:09:35.230Z,20.07
2022-12-04T03:12:14.744Z,19.17
2022-12-04T03:14:47.772Z,18.50
2022-12-04T03:17:25.640Z,16.70
2022-12-04T03:19:55.306Z,19.50
2022-12-04T03:22:23.988Z,17.43
2022-12-04T03:24:51.877Z,17.57
2022-12-04T03:27:30.581Z,18.17
2022-12-04T03:30:14.344Z,19.50
2022-12-04T03:32:56.766Z,19.03
2022-12-04T03:35:23.221Z,17.57
2022-12-04T03:38:12.528Z,17.93
2022-12-04T03:40:43.823Z,19.30
2022-12-04T03:43:13.874Z,19.13
2022-12-04T03:45:43.554Z,18.90
2022-12-04T03:48:25.361Z,17.37
2022-12-04T03:50:56.220Z,18.83
2022-12-04T03:53:27.948Z,17.53
2022-12-04T03:58:24.760Z,17.83
2022-12-04T04:00:53.225Z,17.23
2022-12-04T04:03:24.598Z,17.80
2022-12-04T04:05:53.223Z,20.42
2022-12-04T04:08:31.070Z,18.67
2022-12-04T04:11:17.870Z,18.33
2022-12-04T04:14:14.466Z,20.50
2022-12-04T04:17:02.137Z,17.43
2022-12-04T04:19:48.390Z,16.50
2022-12-04T04:22:35.528Z,18.77
2022-12-04T04:25:16.417Z,17.83
2022-12-04T04:27:42.936Z,18.48
2022-12-04T04:30:09.753Z,17.73
2022-12-04T04:32:42.970Z,17.57
2022-12-04T04:35:15.102Z,17.93
2022-12-04T04:37:47.774Z,19.03
2022-12-04T04:40:19.411Z,17.40
2022-12-04T04:42:51.018Z,17.95
2022-12-04T04:45:31.720Z,18.02
2022-12-04T04:48:09.432Z,18.07
2022-12-04T04:50:36.111Z,16.77
2022-12-04T04:53:05.602Z,19.47
2022-12-04T04:55:42.096Z,17.73
2022-12-04T04:58:10.082Z,17.63
2022-12-04T05:00:36.821Z,17.50
2022-12-04T05:03:03.862Z,16.87
2022-12-04T05:05:30.510Z,18.03
2022-12-04T05:07:56.988Z,16.53
2022-12-04T05:10:23.605Z,17.40
2022-12-04T05:12:50.090Z,15.83
2022-12-04T05:15:16.883Z,16.43
2022-12-04T05:17:43.523Z,15.37
2022-12-04T05:20:10.365Z,16.83
2022-12-04T05:22:38.014Z,17.57
2022-12-04T05:25:04.858Z,14.37
2022-12-04T05:27:31.840Z,14.17
2022-12-04T05:29:59.071Z,15.60
2022-12-04T05:32:26.806Z,13.83
2022-12-04T05:34:54.077Z,15.33
2022-12-04T05:37:20.593Z,17.87
2022-12-04T05:39:47.125Z,14.53
2022-12-04T05:42:13.935Z,13.90
2022-12-04T05:44:40.479Z,15.83
2022-12-04T05:47:06.989Z,14.33
2022-12-04T05:49:33.740Z,15.83
2022-12-04T05:52:01.017Z,14.40
2022-12-04T05:54:27.695Z,15.83
2022-12-04T05:56:54.199Z,16.67
2022-12-04T05:59:20.636Z,13.73
2022-12-04T06:01:47.209Z,14.97
2022-12-04T06:04:13.763Z,14.63
2022-12-04T06:06:40.277Z,15.30
2022-12-04T06:09:08.401Z,15.20
2022-12-04T06:11:36.031Z,14.90
2022-12-04T06:14:04.558Z,14.67
2022-12-04T06:16:32.395Z,15.30
2022-12-04T06:19:00.219Z,14.03
2022-12-04T06:21:28.727Z,15.07
2022-12-04T06:23:55.574Z,15.87
2022-12-04T06:26:22.974Z,16.00
2022-12-04T06:28:49.573Z,16.47
2022-12-04T06:31:16.687Z,14.53
2022-12-04T06:33:43.215Z,15.53
2022-12-04T06:36:14.110Z,16.20
2022-12-04T06:38:41.187Z,17.10
2022-12-04T06:41:08.750Z,15.70
2022-12-04T06:43:35.280Z,16.33
2022-12-04T06:46:02.921Z,18.30
2022-12-04T06:48:29.656Z,17.13
2022-12-04T06:51:03.587Z,15.40
2022-12-04T06:53:31.172Z,17.60
2022-12-04T06:55:58.367Z,15.80
2022-12-04T06:58:25.174Z,15.50
2022-12-04T07:00:51.793Z,15.30
2022-12-04T07:03:18.615Z,16.27
2022-12-04T07:05:48.458Z,18.23
2022-12-04T07:08:15.630Z,15.90
2022-12-04T07:10:42.479Z,15.17
2022-12-04T07:13:09.276Z,15.37
2022-12-04T07:15:36.385Z,14.73
2022-12-04T07:18:03.684Z,14.57
2022-12-04T07:20:30.419Z,16.37
2022-12-04T07:22:56.971Z,16.60
2022-12-04T07:25:23.883Z,15.43
2022-12-04T07:27:50.318Z,17.90
2022-12-04T07:30:16.982Z,16.47
2022-12-04T07:32:43.582Z,15.53
2022-12-04T07:35:10.147Z,15.77
2022-12-04T07:37:36.890Z,16.50
2022-12-04T07:40:04.217Z,16.83
2022-12-04T07:42:30.737Z,16.37
2022-12-04T07:44:57.224Z,16.10
2022-12-04T07:47:23.722Z,19.43
2022-12-04T07:49:50.180Z,17.23
2022-12-04T07:52:16.661Z,17.13
2022-12-04T07:54:43.206Z,17.43
2022-12-04T07:57:09.724Z,17.40
2022-12-04T07:59:36.270Z,17.67
2022-12-04T08:02:02.727Z,19.17
2022-12-04T08:04:29.296Z,18.90
2022-12-04T08:06:55.805Z,17.33
2022-12-04T08:09:22.390Z,18.53
2022-12-04T08:11:48.858Z,17.43
2022-12-04T08:14:15.427Z,25.53
2022-12-04T08:16:41.988Z,22.57
2022-12-04T08:19:08.519Z,17.80
2022-12-04T08:21:35.041Z,18.70
2022-12-04T08:24:02.283Z,18.30
2022-12-04T08:26:30.120Z,19.63
2022-12-04T08:28:57.252Z,19.90
2022-12-04T08:31:25.043Z,19.33
2022-12-04T08:33:52.272Z,19.37
2022-12-04T08:36:20.639Z,19.20
2022-12-04T08:38:47.717Z,15.90
2022-12-04T08:41:15.362Z,16.57
2022-12-04T08:43:42.129Z,16.97
2022-12-04T08:46:10.215Z,16.47
2022-12-04T08:48:37.190Z,16.63
2022-12-04T08:51:04.499Z,16.43
2022-12-04T08:53:31.699Z,17.90
2022-12-04T08:56:00.575Z,17.07
2022-12-04T08:58:27.196Z,17.37
2022-12-04T09:00:53.706Z,18.33
2022-12-04T09:03:23.645Z,17.20
2022-12-04T09:05:58.278Z,18.47
2022-12-04T09:08:24.743Z,19.07
2022-12-04T09:10:51.296Z,20.77
2022-12-04T09:13:17.749Z,20.07
2022-12-04T09:15:44.278Z,22.80
2022-12-04T09:18:10.776Z,18.77
2022-12-04T09:20:37.457Z,19.50
2022-12-04T09:23:05.530Z,19.17
2022-12-04T09:25:35.102Z,15.67
2022-12-04T09:28:01.754Z,17.27
2022-12-04T09:30:28.291Z,19.40
2022-12-04T09:32:54.792Z,17.27
2022-12-04T09:35:21.583Z,16.83
2022-12-04T09:37:48.009Z,16.63
2022-12-04T09:40:35.258Z,17.07
2022-12-04T09:43:03.896Z,16.77
2022-12-04T09:45:34.144Z,20.47
2022-12-04T09:48:01.552Z,16.80
2022-12-04T09:50:43.603Z,18.37
2022-12-04T09:53:21.073Z,17.53
2022-12-04T09:56:07.085Z,19.07
2022-12-04T09:59:00.041Z,16.87
2022-12-04T10:01:45.476Z,19.23
2022-12-04T10:04:12.547Z,18.30
2022-12-04T10:06:49.765Z,17.13
2022-12-04T10:09:16.147Z,18.63
2022-12-04T10:11:42.587Z,17.53
2022-12-04T10:14:15.279Z,19.40
2022-12-04T10:16:54.107Z,22.23
2022-12-04T10:19:23.351Z,19.43
2022-12-04T10:21:57.671Z,19.87
2022-12-04T10:24:29.432Z,19.47
2022-12-04T10:26:57.323Z,20.92
2022-12-04T10:29:32.903Z,20.03
2022-12-04T10:32:05.318Z,17.63
2022-12-04T10:34:31.799Z,19.60
2022-12-04T10:37:00.364Z,20.53
2022-12-04T10:39:31.070Z,19.73
2022-12-04T10:42:16.325Z,21.10
2022-12-04T10:44:42.963Z,21.17
2022-12-04T10:47:11.217Z,21.37
2022-12-04T10:49:37.933Z,22.00
2022-12-04T10:52:05.101Z,20.33
2022-12-04T10:54:31.732Z,20.47
2022-12-04T10:57:02.268Z,22.07
2022-12-04T10:59:29.325Z,21.17
2022-12-04T11:02:06.230Z,20.77
2022-12-04T11:04:34.306Z,23.50
2022-12-04T11:07:05.027Z,23.50
2022-12-04T11:09:31.738Z,22.37
2022-12-04T11:12:06.291Z,23.50
2022-12-04T11:14:32.794Z,24.87
2022-12-04T11:17:03.623Z,22.67
2022-12-04T11:19:31.537Z,22.07
2022-12-04T11:22:04.532Z,23.60
2022-12-04T11:24:38.109Z,21.07
2022-12-04T11:27:05.559Z,21.43
2022-12-04T11:29:43.133Z,24.03
2022-12-04T11:32:44.857Z,25.43
2022-12-04T11:35:16.155Z,23.60
2022-12-04T11:37:45.521Z,26.80
2022-12-04T11:40:17.834Z,25.73
2022-12-04T11:42:44.891Z,24.60
2022-12-04T11:45:22.044Z,25.80
2022-12-04T11:47:55.919Z,22.17
2022-12-04T11:50:25.273Z,23.87
2022-12-04T11:53:09.254Z,24.70
2022-12-04T11:55:47.186Z,22.93
2022-12-04T11:58:19.418Z,22.63
2022-12-04T12:01:04.726Z,24.30
2022-12-04T12:03:34.763Z,23.40
2022-12-04T12:06:02.394Z,22.77
2022-12-04T12:08:42.070Z,25.87
2022-12-04T12:11:26.309Z,23.30
2022-12-04T12:13:52.792Z,23.53
2022-12-04T12:16:22.366Z,23.43
2022-12-04T12:19:16.192Z,22.73
2022-12-04T12:21:42.601Z,26.37
2022-12-04T12:24:12.204Z,27.90
2022-12-04T12:26:55.290Z,27.27
2022-12-04T12:29:27.338Z,26.03
2022-12-04T12:32:09.742Z,24.00
2022-12-04T12:34:37.118Z,22.50
2022-12-04T12:37:23.329Z,22.57
2022-12-04T12:40:08.431Z,24.13
2022-12-04T12:42:38.122Z,22.13
2022-12-04T12:45:07.931Z,24.40
2022-12-04T12:47:39.697Z,22.67
2022-12-04T12:52:41.369Z,20.70
2022-12-04T12:55:20.491Z,21.20
2022-12-04T12:57:49.387Z,22.40
2022-12-04T13:00:22.913Z,23.37
2022-12-04T13:02:53.056Z,22.30
2022-12-04T13:05:23.388Z,22.53
2022-12-04T13:07:56.143Z,24.13
2022-12-04T13:10:54.997Z,19.20
2022-12-04T13:13:26.032Z,21.37
2022-12-04T13:16:10.860Z,21.50
2022-12-04T13:18:41.051Z,18.83
2022-12-04T13:21:08.521Z,19.47
2022-12-04T13:23:45.025Z,18.13
2022-12-04T13:26:20.091Z,18.93
2022-12-04T13:28:55.321Z,19.70
2022-12-04T13:31:25.089Z,19.80
2022-12-04T13:33:59.510Z,21.17
2022-12-04T13:36:30.093Z,20.87
2022-12-04T13:39:00.320Z,19.93
2022-12-04T13:41:27.340Z,23.20
2022-12-04T13:43:54.091Z,20.23
2022-12-04T13:46:20.577Z,23.33
2022-12-04T13:48:47.141Z,23.63
2022-12-04T13:51:13.646Z,22.40
2022-12-04T13:53:47.658Z,23.20
2022-12-04T13:56:25.138Z,23.30
2022-12-04T13:59:05.571Z,21.03
2022-12-04T14:01:40.091Z,21.73
2022-12-04T14:04:07.936Z,23.00
2022-12-04T14:06:36.834Z,23.97
2022-12-04T14:09:05.710Z,22.90
2022-12-04T14:11:41.483Z,22.93
2022-12-04T14:14:20.701Z,23.37
2022-12-04T14:16:48.574Z,23.43
2022-12-04T14:19:32.526Z,22.23
2022-12-04T14:22:01.285Z,24.40
2022-12-04T14:24:35.757Z,24.33
2022-12-04T14:27:23.218Z,25.40
2022-12-04T14:29:52.195Z,27.40
2022-12-04T14:32:23.444Z,26.40
2022-12-04T14:34:50.572Z,24.67
2022-12-04T14:37:32.018Z,25.50
2022-12-04T14:39:59.439Z,24.70
2022-12-04T14:42:33.934Z,25.00
2022-12-04T14:45:02.194Z,28.83
2022-12-04T14:47:33.722Z,30.53
2022-12-04T14:50:10.383Z,27.35
2022-12-04T14:52:44.269Z,28.70
2022-12-04T14:55:13.621Z,28.90
2022-12-04T14:57:42.824Z,31.47
2022-12-04T15:00:17.141Z,29.60
2022-12-04T15:02:44.734Z,28.40
2022-12-04T15:05:12.785Z,27.77
2022-12-04T15:07:45.198Z,26.87
2022-12-04T15:10:41.091Z,27.63
2022-12-04T15:13:07.789Z,30.77
2022-12-04T15:15:34.838Z,28.77
2022-12-04T15:18:07.537Z,32.13
2022-12-04T15:20:39.248Z,31.77
2022-12-04T15:23:06.165Z,32.80
2022-12-04T15:25:39.396Z,34.27
2022-12-04T15:28:13.303Z,32.07
2022-12-04T15:30:41.295Z,30.73
2022-12-04T15:33:10.896Z,30.97
2022-12-04T15:35:39.308Z,32.30
2022-12-04T15:38:05.819Z,32.40
2022-12-04T15:40:32.350Z,29.70
2022-12-04T15:43:19.024Z,29.63
2022-12-04T15:45:45.485Z,32.03
2022-12-04T15:48:22.547Z,29.20
2022-12-04T15:50:55.338Z,27.00
2022-12-04T15:53:24.872Z,29.10
2022-12-04T15:55:52.862Z,27.03
2022-12-04T15:58:22.485Z,31.03
2022-12-04T16:00:54.325Z,32.17
2022-12-04T16:05:47.438Z,29.23
2022-12-04T16:08:24.982Z,28.13
2022-12-04T16:11:08.093Z,29.27
2022-12-04T16:13:36.340Z,28.90
2022-12-04T16:16:12.060Z,31.47
2022-12-04T16:18:39.458Z,30.90
2022-12-04T16:21:15.821Z,31.53
2022-12-04T16:23:42.389Z,33.00
2022-12-04T16:26:15.952Z,33.43
2022-12-04T16:28:42.563Z,32.03
2022-12-04T16:31:11.001Z,30.80
2022-12-04T16:33:37.781Z,29.30
2022-12-04T16:36:04.697Z,30.10
2022-12-04T16:38:31.187Z,30.40
2022-12-04T16:40:57.892Z,27.90
2022-12-04T16:43:24.349Z,28.47
2022-12-04T16:45:54.608Z,27.40
2022-12-04T16:48:21.208Z,30.83
2022-12-04T16:50:47.683Z,31.57
2022-12-04T16:53:18.471Z,29.37
2022-12-04T16:55:46.609Z,30.07
2022-12-04T16:58:13.076Z,26.87
2022-12-04T17:00:40.009Z,25.87
2022-12-04T17:03:06.585Z,30.07
2022-12-04T17:05:35.859Z,28.87
2022-12-04T17:08:02.600Z,27.30
2022-12-04T17:10:30.173Z,27.83
2022-12-04T17:12:56.759Z,26.97
2022-12-04T17:15:23.366Z,27.53
2022-12-04T17:17:50.035Z,28.30
2022-12-04T17:20:17.855Z,29.07
2022-12-04T17:22:44.639Z,27.97
2022-12-04T17:25:11.868Z,30.10
2022-12-04T17:27:39.132Z,31.43
2022-12-04T17:30:06.229Z,28.77
2022-12-04T17:32:33.351Z,31.27
2022-12-04T17:34:59.903Z,32.23
2022-12-04T17:37:26.568Z,29.43
2022-12-04T17:39:53.209Z,33.17
2022-12-04T17:42:19.909Z,29.53
2022-12-04T17:44:46.514Z,29.80
2022-12-04T17:47:13.074Z,30.90
2022-12-04T17:49:39.516Z,31.57
2022-12-04T17:52:06.072Z,28.20
2022-12-04T17:54:32.657Z,30.20
2022-12-04T17:56:59.573Z,28.70
2022-12-04T17:59:26.053Z,27.60
2022-12-04T18:01:52.654Z,27.20
2022-12-04T18:04:19.497Z,31.37
2022-12-04T18:06:46.400Z,27.57
2022-12-04T18:09:13.964Z,29.00
2022-12-04T18:11:41.463Z,26.57
2022-12-04T18:14:12.327Z,34.00
2022-12-04T18:16:41.284Z,29.63
2022-12-04T18:19:07.798Z,27.70
2022-12-04T18:21:34.576Z,29.17
2022-12-04T18:24:02.879Z,26.33
2022-12-04T18:26:32.540Z,28.00
2022-12-04T18:28:59.146Z,27.40
2022-12-04T18:31:25.686Z,26.10
2022-12-04T18:33:52.174Z,27.47
2022-12-04T18:36:19.976Z,27.07
2022-12-04T18:38:47.016Z,26.70
2022-12-04T18:41:14.501Z,26.47
2022-12-04T18:43:42.281Z,27.13
2022-12-04T18:46:10.620Z,28.33
2022-12-04T18:48:37.886Z,26.30
2022-12-04T18:51:14.678Z,26.13
2022-12-04T18:53:41.129Z,29.67
2022-12-04T18:56:07.603Z,26.07
2022-12-04T18:58:34.051Z,26.97
2022-12-04T19:01:07.962Z,28.73
2022-12-04T19:03:34.972Z,28.87
2022-12-04T19:06:01.624Z,27.70
2022-12-04T19:08:32.934Z,30.00
2022-12-04T19:11:08.644Z,29.13
2022-12-04T19:13:35.286Z,27.87
2022-12-04T19:16:02.308Z,29.67
2022-12-04T19:18:29.904Z,28.90
2022-12-04T19:20:56.792Z,29.07
2022-12-04T19:23:23.384Z,28.40
2022-12-04T19:25:56.835Z,29.57
2022-12-04T19:28:23.685Z,25.27
2022-12-04T19:30:50.243Z,28.47
2022-12-04T19:33:16.776Z,28.10
2022-12-04T19:35:43.604Z,26.00
2022-12-04T19:38:10.125Z,24.17
2022-12-04T19:40:36.573Z,24.50
2022-12-04T19:43:03.337Z,24.50
2022-12-04T19:45:30.098Z,26.43
2022-12-04T19:47:56.616Z,23.27
2022-12-04T19:50:24.101Z,23.53
2022-12-04T19:52:50.708Z,25.10
2022-12-04T19:55:17.170Z,26.80
2022-12-04T19:57:43.680Z,24.33
2022-12-04T20:00:10.379Z,23.70
2022-12-04T20:02:36.861Z,24.53
2022-12-04T20:05:03.518Z,23.30
2022-12-04T20:07:30.028Z,25.53
2022-12-04T20:09:56.910Z,24.90
2022-12-04T20:12:24.552Z,24.07
2022-12-04T20:14:51.045Z,26.10
2022-12-04T20:17:17.509Z,23.53
2022-12-04T20:19:44.032Z,22.27
2022-12-04T20:22:10.530Z,24.33
2022-12-04T20:24:37.085Z,24.40
2022-12-04T20:27:03.531Z,22.37
2022-12-04T20:29:30.012Z,24.17
2022-12-04T20:31:56.628Z,23.47
2022-12-04T20:34:23.434Z,23.13
2022-12-04T20:36:49.947Z,25.77
2022-12-04T20:39:16.990Z,22.97
2022-12-04T20:41:43.432Z,23.40
2022-12-04T20:44:12.802Z,21.47
2022-12-04T20:46:40.044Z,24.20
2022-12-04T20:49:07.724Z,20.13
2022-12-04T20:51:41.190Z,21.13
2022-12-04T20:54:08.463Z,19.50
2022-12-04T20:56:35.800Z,20.83
2022-12-04T20:59:04.709Z,23.67
2022-12-04T21:01:31.205Z,19.77
2022-12-04T21:04:01.525Z,22.10
2022-12-04T21:06:34.554Z,21.47
2022-12-04T21:09:05.772Z,21.03
2022-12-04T21:11:33.985Z,20.47
2022-12-04T21:14:20.344Z,21.67
2022-12-04T21:16:47.345Z,22.13
2022-12-04T21:19:15.163Z,20.97
2022-12-04T21:21:41.936Z,21.33
2022-12-04T21:24:09.194Z,19.57
2022-12-04T21:26:35.645Z,21.50
2022-12-04T21:29:02.853Z,21.37
2022-12-04T21:31:29.951Z,19.93
2022-12-04T21:33:57.218Z,21.17
2022-12-04T21:36:24.172Z,20.53
2022-12-04T21:38:50.878Z,21.63
2022-12-04T21:41:36.513Z,22.83
2022-12-04T21:44:10.670Z,18.77
2022-12-04T21:46:37.523Z,23.17
2022-12-04T21:49:04.058Z,23.13
2022-12-04T21:51:56.361Z,22.80
2022-12-04T21:54:17.212Z,26.20
2022-12-04T21:56:43.923Z,21.50
2022-12-04T21:59:10.540Z,23.97
2022-12-04T22:01:37.534Z,24.63
2022-12-04T22:04:04.097Z,23.20
2022-12-04T22:06:33.836Z,22.33
2022-12-04T22:09:00.941Z,20.50
2022-12-04T22:11:27.406Z,23.40
2022-12-04T22:13:53.818Z,21.23
2022-12-04T22:16:25.625Z,22.17
2022-12-04T22:18:57.324Z,24.73
2022-12-04T22:21:24.227Z,24.77
2022-12-04T22:23:54.804Z,23.17
2022-12-04T22:26:23.774Z,24.00
2022-12-04T22:28:50.188Z,22.27
2022-12-04T22:31:17.830Z,22.43
2022-12-04T22:33:48.252Z,23.83
2022-12-04T22:36:16.998Z,21.00
2022-12-04T22:39:07.661Z,22.33
2022-12-04T22:41:30.538Z,22.27
2022-12-04T22:43:56.984Z,21.77
2022-12-04T22:46:23.510Z,23.03
2022-12-04T22:48:49.914Z,20.53
2022-12-04T22:51:17.918Z,21.63
2022-12-04T22:53:45.749Z,23.03
2022-12-04T22:56:13.664Z,20.33
2022-12-04T22:58:40.134Z,23.27
2022-12-04T23:01:12.788Z,21.67
2022-12-04T23:03:39.455Z,20.57
2022-12-04T23:06:06.087Z,21.53
2022-12-04T23:08:32.945Z,19.73
2022-12-04T23:11:02.971Z,20.43
2022-12-04T23:13:29.395Z,20.97
2022-12-04T23:15:56.052Z,19.70
2022-12-04T23:18:23.579Z,18.83
2022-12-04T23:20:50.122Z,19.23
2022-12-04T23:23:16.617Z,20.47
2022-12-04T23:25:43.012Z,18.83
2022-12-04T23:28:09.409Z,19.83
2022-12-04T23:30:36.869Z,18.90
2022-12-04T23:33:03.402Z,21.53
2022-12-04T23:35:30.493Z,19.67
2022-12-04T23:37:57.005Z,21.43
2022-12-04T23:40:23.432Z,20.47
2022-12-04T23:42:49.880Z,20.07
2022-12-04T23:45:16.494Z,20.97
2022-12-04T23:47:43.657Z,19.57
2022-12-04T23:50:10.313Z,23.40
2022-12-04T23:52:36.763Z,22.40
2022-12-04T23:55:03.176Z,20.73
2022-12-04T23:57:30.107Z,20.33
2022-12-04T23:59:56.775Z,20.07
